createdAt,value
2023-05-03T00:02:25.474Z,6.60
2023-05-03T00:04:54.528Z,14.20
2023-05-03T00:07:23.066Z,8.80
2023-05-03T00:09:50.331Z,7.90
2023-05-03T00:12:17.371Z,10.10
2023-05-03T00:14:45.781Z,7.20
2023-05-03T00:17:13.137Z,7.60
2023-05-03T00:19:40.185Z,7.10
2023-05-03T00:22:07.714Z,9.80
2023-05-03T00:24:35.207Z,13.60
2023-05-03T00:27:03.696Z,11.80
2023-05-03T00:29:30.753Z,9.90
2023-05-03T00:31:57.749Z,17.30
2023-05-03T00:34:24.736Z,17.50
2023-05-03T00:36:52.074Z,19.10
2023-05-03T00:39:19.123Z,14.00
2023-05-03T00:41:46.183Z,13.00
2023-05-03T00:44:13.248Z,10.90
2023-05-03T00:46:40.527Z,12.10
2023-05-03T00:49:07.520Z,13.10
2023-05-03T00:51:34.536Z,14.70
2023-05-03T00:54:01.549Z,13.00
2023-05-03T00:56:30.990Z,12.30
2023-05-03T00:58:58.283Z,12.90
2023-05-03T01:01:25.917Z,10.80
2023-05-03T01:03:53.086Z,8.50
2023-05-03T01:06:38.843Z,9.50
2023-05-03T01:09:15.189Z,7.60
2023-05-03T01:11:44.677Z,7.50
2023-05-03T01:14:27.009Z,9.90
2023-05-03T01:16:56.557Z,12.10
2023-05-03T01:19:33.807Z,8.20
2023-05-03T01:22:36.608Z,8.60
2023-05-03T01:25:11.464Z,11.40
2023-05-03T01:27:39.205Z,7.90
2023-05-03T01:30:07.888Z,17.10
2023-05-03T01:32:44.441Z,13.00
2023-05-03T01:35:20.420Z,12.10
2023-05-03T01:37:48.362Z,12.80
2023-05-03T01:40:17.042Z,11.20
2023-05-03T01:42:44.036Z,12.20
2023-05-03T01:45:11.493Z,11.60
2023-05-03T01:47:38.488Z,11.10
2023-05-03T01:50:05.804Z,10.30
2023-05-03T01:52:33.549Z,14.70
2023-05-03T01:55:00.575Z,14.90
2023-05-03T01:57:27.615Z,30.80
2023-05-03T01:59:54.617Z,32.60
2023-05-03T02:02:22.537Z,32.60
2023-05-03T02:04:50.058Z,25.30
2023-05-03T02:07:17.041Z,22.00
2023-05-03T02:09:45.913Z,19.70
2023-05-03T02:12:12.957Z,15.30
2023-05-03T02:14:41.275Z,14.50
2023-05-03T02:17:10.581Z,11.40
2023-05-03T02:19:37.975Z,8.90
2023-05-03T02:22:04.901Z,10.50
2023-05-03T02:24:36.328Z,13.70
2023-05-03T02:27:07.264Z,7.10
2023-05-03T02:29:34.282Z,9.60
2023-05-03T02:32:01.930Z,8.60
2023-05-03T02:34:28.937Z,5.70
2023-05-03T02:36:55.979Z,8.00
2023-05-03T02:39:23.158Z,9.70
2023-05-03T02:41:50.304Z,6.70
2023-05-03T02:44:17.307Z,6.40
2023-05-03T02:46:44.569Z,6.70
2023-05-03T02:49:11.882Z,10.80
2023-05-03T02:51:38.879Z,10.40
2023-05-03T02:54:06.021Z,10.10
2023-05-03T02:56:33.846Z,8.20
2023-05-03T02:59:00.804Z,6.70
2023-05-03T03:01:28.996Z,7.90
2023-05-03T03:03:56.750Z,6.10
2023-05-03T03:06:23.773Z,11.20
2023-05-03T03:08:50.790Z,6.10
2023-05-03T03:11:18.325Z,8.80
2023-05-03T03:13:45.301Z,7.60
2023-05-03T03:16:13.665Z,11.40
2023-05-03T03:18:40.926Z,13.70
2023-05-03T03:21:08.309Z,12.60
2023-05-03T03:23:35.468Z,9.80
2023-05-03T03:26:03.538Z,8.80
2023-05-03T03:28:30.591Z,8.30
2023-05-03T03:30:58.217Z,8.70
2023-05-03T03:33:26.020Z,10.60
2023-05-03T03:35:54.969Z,10.70
2023-05-03T03:38:22.135Z,9.00
2023-05-03T03:40:54.313Z,10.00
2023-05-03T03:43:21.502Z,14.40
2023-05-03T03:45:48.922Z,11.30
2023-05-03T03:48:16.246Z,13.70
2023-05-03T03:50:43.226Z,11.40
2023-05-03T03:53:11.801Z,15.70
2023-05-03T03:55:39.056Z,11.40
2023-05-03T03:58:07.250Z,12.50
2023-05-03T04:00:34.973Z,10.10
2023-05-03T04:03:07.538Z,12.40
2023-05-03T04:05:35.873Z,10.60
2023-05-03T04:08:03.256Z,9.40
2023-05-03T04:10:31.766Z,10.20
2023-05-03T04:12:59.124Z,11.60
2023-05-03T04:15:26.326Z,10.50
2023-05-03T04:17:54.104Z,7.80
2023-05-03T04:20:21.719Z,9.60
2023-05-03T04:22:50.002Z,9.50
2023-05-03T04:25:18.433Z,7.00
2023-05-03T04:27:51.659Z,11.00
2023-05-03T04:30:20.883Z,11.40
2023-05-03T04:32:54.406Z,8.70
2023-05-03T04:35:22.859Z,10.40
2023-05-03T04:37:49.806Z,11.40
2023-05-03T04:40:19.947Z,9.10
2023-05-03T04:42:51.815Z,8.30
2023-05-03T04:45:19.033Z,9.40
2023-05-03T04:47:46.760Z,10.60
2023-05-03T04:50:13.820Z,9.00
2023-05-03T04:52:42.519Z,14.70
2023-05-03T04:55:09.956Z,8.30
2023-05-03T04:57:37.064Z,13.00
2023-05-03T05:00:11.651Z,19.40
2023-05-03T05:02:41.376Z,8.50
2023-05-03T05:05:09.688Z,12.30
2023-05-03T05:07:37.059Z,12.70
2023-05-03T05:10:04.916Z,12.90
2023-05-03T05:12:32.355Z,10.80
2023-05-03T05:15:00.179Z,14.70
2023-05-03T05:17:27.585Z,10.50
2023-05-03T05:19:54.725Z,9.90
2023-05-03T05:22:21.876Z,10.70
2023-05-03T05:24:53.419Z,9.80
2023-05-03T05:27:20.594Z,8.80
2023-05-03T05:29:48.150Z,10.20
2023-05-03T05:32:15.218Z,8.20
2023-05-03T05:34:44.635Z,6.40
2023-05-03T05:37:13.607Z,7.00
2023-05-03T05:39:41.436Z,9.80
2023-05-03T05:42:08.753Z,8.40
2023-05-03T05:44:35.867Z,6.10
2023-05-03T05:47:03.541Z,5.50
2023-05-03T05:49:30.654Z,6.70
2023-05-03T05:51:58.009Z,5.30
2023-05-03T05:54:24.985Z,5.30
2023-05-03T05:56:52.273Z,7.40
2023-05-03T05:59:19.645Z,7.10
2023-05-03T06:01:46.807Z,5.10
2023-05-03T06:04:16.858Z,6.60
2023-05-03T06:06:45.355Z,8.50
2023-05-03T06:09:24.051Z,10.60
2023-05-03T06:11:55.489Z,7.80
2023-05-03T06:14:23.554Z,5.70
2023-05-03T06:16:51.875Z,5.90
2023-05-03T06:19:18.939Z,7.90
2023-05-03T06:21:46.245Z,9.40
2023-05-03T06:24:14.995Z,5.60
2023-05-03T06:26:42.034Z,7.90
2023-05-03T06:29:10.951Z,3.10
2023-05-03T06:31:38.038Z,4.20
2023-05-03T06:34:05.030Z,11.40
2023-05-03T06:36:33.028Z,8.30
2023-05-03T06:39:00.402Z,7.40
2023-05-03T06:41:27.397Z,10.30
2023-05-03T06:43:54.441Z,10.10
2023-05-03T06:46:21.988Z,22.80
2023-05-03T06:48:49.134Z,12.30
2023-05-03T06:51:16.200Z,12.80
2023-05-03T06:53:43.250Z,12.70
2023-05-03T06:56:10.224Z,6.50
2023-05-03T06:58:37.393Z,9.20
2023-05-03T07:01:04.415Z,5.10
2023-05-03T07:03:31.486Z,9.00
2023-05-03T07:05:59.160Z,10.20
2023-05-03T07:08:26.492Z,7.80
2023-05-03T07:10:53.490Z,10.20
2023-05-03T07:13:20.980Z,6.00
2023-05-03T07:15:48.072Z,3.90
2023-05-03T07:18:15.154Z,6.20
2023-05-03T07:20:42.238Z,8.80
2023-05-03T07:23:09.475Z,14.40
2023-05-03T07:25:36.494Z,9.50
2023-05-03T07:28:03.963Z,17.20
2023-05-03T07:30:31.004Z,5.50
2023-05-03T07:32:58.069Z,8.40
2023-05-03T07:35:26.920Z,15.00
2023-05-03T07:37:53.917Z,24.20
2023-05-03T07:40:20.971Z,8.00
2023-05-03T07:42:48.083Z,10.40
2023-05-03T07:45:15.064Z,10.50
2023-05-03T07:47:42.166Z,5.80
2023-05-03T07:50:09.559Z,4.70
2023-05-03T07:52:37.549Z,9.60
2023-05-03T07:55:05.489Z,5.80
2023-05-03T07:57:32.907Z,3.90
2023-05-03T07:59:59.940Z,5.20
2023-05-03T08:02:27.382Z,9.00
2023-05-03T08:04:55.452Z,7.90
2023-05-03T08:07:23.524Z,7.80
2023-05-03T08:09:53.753Z,8.70
2023-05-03T08:12:20.819Z,8.60
2023-05-03T08:14:47.831Z,17.00
2023-05-03T08:17:14.856Z,5.00
2023-05-03T08:19:42.699Z,9.90
2023-05-03T08:22:12.702Z,5.00
2023-05-03T08:24:39.736Z,15.20
2023-05-03T08:27:06.674Z,10.80
2023-05-03T08:29:37.149Z,4.90
2023-05-03T08:32:04.759Z,8.20
2023-05-03T08:34:32.138Z,11.10
2023-05-03T08:36:59.741Z,10.20
2023-05-03T08:39:27.050Z,8.50
2023-05-03T08:41:56.038Z,6.50
2023-05-03T08:44:23.543Z,6.30
2023-05-03T08:46:50.828Z,7.40
2023-05-03T08:49:18.165Z,9.20
2023-05-03T08:51:49.866Z,21.40
2023-05-03T08:54:18.340Z,10.60
2023-05-03T08:56:47.372Z,7.50
2023-05-03T08:59:16.559Z,7.40
2023-05-03T09:01:43.899Z,4.40
2023-05-03T09:04:11.681Z,4.70
2023-05-03T09:06:38.934Z,13.60
2023-05-03T09:09:09.970Z,8.50
2023-05-03T09:11:38.302Z,8.90
2023-05-03T09:14:09.581Z,15.70
2023-05-03T09:16:36.711Z,11.60
2023-05-03T09:19:05.130Z,8.20
2023-05-03T09:21:33.754Z,10.00
2023-05-03T09:24:01.817Z,13.60
2023-05-03T09:26:30.024Z,10.10
2023-05-03T09:28:58.881Z,5.90
2023-05-03T09:31:26.253Z,12.60
2023-05-03T09:33:53.698Z,6.60
2023-05-03T09:36:20.735Z,8.20
2023-05-03T09:38:47.795Z,5.10
2023-05-03T09:41:15.319Z,9.90
2023-05-03T09:43:52.653Z,3.60
2023-05-03T09:46:20.754Z,7.10
2023-05-03T09:48:49.592Z,13.70
2023-05-03T09:51:16.673Z,8.60
2023-05-03T09:53:43.608Z,12.00
2023-05-03T09:56:13.468Z,8.40
2023-05-03T09:58:41.078Z,8.00
2023-05-03T10:01:09.494Z,10.40
2023-05-03T10:03:41.842Z,8.60
2023-05-03T10:06:24.460Z,11.40
2023-05-03T10:11:39.496Z,8.70
2023-05-03T10:14:09.768Z,9.20
2023-05-03T10:16:38.815Z,14.30
2023-05-03T10:19:14.395Z,10.40
2023-05-03T10:22:06.852Z,9.90
2023-05-03T10:24:34.939Z,5.90
2023-05-03T10:27:02.165Z,12.30
2023-05-03T10:29:46.136Z,3.90
2023-05-03T10:32:44.607Z,12.40
2023-05-03T10:35:15.690Z,7.10
2023-05-03T10:37:43.036Z,14.50
2023-05-03T10:40:15.361Z,10.60
2023-05-03T10:42:46.885Z,14.70
2023-05-03T10:45:29.404Z,9.30
2023-05-03T10:50:39.903Z,13.10
2023-05-03T10:53:06.926Z,12.50
2023-05-03T10:55:34.189Z,9.20
2023-05-03T10:58:01.379Z,11.10
2023-05-03T11:00:41.490Z,8.20
2023-05-03T11:03:35.803Z,9.60
2023-05-03T11:06:04.220Z,13.80
2023-05-03T11:08:37.558Z,6.90
2023-05-03T11:11:09.974Z,10.70
2023-05-03T11:13:37.500Z,10.30
2023-05-03T11:16:07.957Z,12.00
2023-05-03T11:18:35.040Z,11.20
2023-05-03T11:21:02.210Z,14.00
2023-05-03T11:23:29.865Z,13.20
2023-05-03T11:25:58.240Z,10.80
2023-05-03T11:28:28.704Z,7.90
2023-05-03T11:30:56.029Z,14.20
2023-05-03T11:33:23.015Z,13.60
2023-05-03T11:35:50.519Z,5.30
2023-05-03T11:38:17.592Z,10.30
2023-05-03T11:40:44.644Z,5.40
2023-05-03T11:43:11.715Z,9.30
2023-05-03T11:45:44.285Z,9.70
2023-05-03T11:48:14.828Z,10.70
2023-05-03T11:50:56.000Z,7.00
2023-05-03T11:53:23.975Z,15.10
2023-05-03T11:55:53.457Z,8.50
2023-05-03T11:58:23.564Z,14.00
2023-05-03T12:00:51.493Z,11.60
2023-05-03T12:03:19.713Z,7.90
2023-05-03T12:05:48.764Z,19.70
2023-05-03T12:08:20.914Z,6.90
2023-05-03T12:13:38.743Z,10.30
2023-05-03T12:18:47.379Z,9.50
2023-05-03T12:23:46.631Z,6.40
2023-05-03T12:26:15.267Z,5.50
2023-05-03T12:28:42.512Z,11.00
2023-05-03T12:33:38.969Z,12.80
2023-05-03T12:36:09.786Z,8.80
2023-05-03T12:38:37.954Z,8.20
2023-05-03T12:41:08.794Z,6.20
2023-05-03T12:43:36.601Z,7.20
2023-05-03T12:48:34.029Z,5.30
2023-05-03T12:51:18.398Z,4.30
2023-05-03T12:53:54.795Z,13.50
2023-05-03T12:56:24.705Z,5.20
2023-05-03T12:59:15.120Z,6.00
2023-05-03T13:06:43.824Z,9.30
2023-05-03T13:09:19.308Z,16.50
2023-05-03T13:11:50.350Z,7.60
2023-05-03T13:14:18.295Z,12.30
2023-05-03T13:16:46.830Z,9.00
2023-05-03T13:19:13.910Z,10.40
2023-05-03T13:21:40.968Z,8.00
2023-05-03T13:24:08.067Z,12.60
2023-05-03T13:26:35.535Z,12.60
2023-05-03T13:29:03.377Z,11.00
2023-05-03T13:31:30.628Z,7.30
2023-05-03T13:33:57.689Z,8.20
2023-05-03T13:36:25.060Z,7.20
2023-05-03T13:38:52.243Z,8.10
2023-05-03T13:41:22.735Z,12.00
2023-05-03T13:43:49.887Z,9.30
2023-05-03T13:46:17.174Z,12.60
2023-05-03T13:48:44.272Z,5.60
2023-05-03T13:51:13.035Z,6.90
2023-05-03T13:53:40.165Z,5.80
2023-05-03T13:56:07.822Z,8.00
2023-05-03T13:58:36.369Z,6.20
2023-05-03T14:01:03.735Z,8.10
2023-05-03T14:03:32.018Z,29.40
2023-05-03T14:05:59.125Z,33.30
2023-05-03T14:08:26.240Z,14.10
2023-05-03T14:10:53.530Z,11.30
2023-05-03T14:13:20.583Z,14.30
2023-05-03T14:15:47.641Z,18.80
2023-05-03T14:18:14.829Z,22.60
2023-05-03T14:20:42.529Z,18.70
2023-05-03T14:23:09.821Z,10.50
2023-05-03T14:25:36.854Z,13.40
2023-05-03T14:28:05.429Z,6.10
2023-05-03T14:30:32.998Z,9.60
2023-05-03T14:33:00.480Z,10.70
2023-05-03T14:35:27.546Z,10.60
2023-05-03T14:37:55.640Z,9.30
2023-05-03T14:40:22.704Z,7.40
2023-05-03T14:42:50.166Z,7.60
2023-05-03T14:45:17.233Z,7.00
2023-05-03T14:47:44.246Z,8.90
2023-05-03T14:50:11.311Z,7.10
2023-05-03T14:52:38.396Z,7.70
2023-05-03T14:55:06.949Z,8.20
2023-05-03T14:57:34.247Z,13.20
2023-05-03T15:00:07.556Z,9.00
2023-05-03T15:02:35.056Z,8.00
2023-05-03T15:05:04.591Z,12.60
2023-05-03T15:07:31.907Z,11.60
2023-05-03T15:09:59.077Z,8.20
2023-05-03T15:12:26.928Z,14.60
2023-05-03T15:14:53.868Z,9.50
2023-05-03T15:17:21.092Z,10.10
2023-05-03T15:19:48.319Z,9.70
2023-05-03T15:22:15.303Z,12.10
2023-05-03T15:24:42.378Z,14.50
2023-05-03T15:27:09.383Z,9.30
2023-05-03T15:29:36.401Z,20.40
2023-05-03T15:32:03.741Z,13.80
2023-05-03T15:34:31.056Z,12.80
2023-05-03T15:36:58.126Z,16.60
2023-05-03T15:39:25.259Z,8.40
2023-05-03T15:41:52.358Z,12.50
2023-05-03T15:44:19.319Z,10.10
2023-05-03T15:46:46.469Z,11.70
2023-05-03T15:49:13.516Z,16.20
2023-05-03T15:51:40.583Z,20.00
2023-05-03T15:54:07.606Z,20.50
2023-05-03T15:56:34.529Z,27.60
2023-05-03T15:59:01.596Z,21.40
2023-05-03T16:01:29.223Z,12.30
2023-05-03T16:03:56.702Z,14.60
2023-05-03T16:06:23.636Z,14.60
2023-05-03T16:08:51.214Z,17.70
2023-05-03T16:11:18.241Z,13.60
2023-05-03T16:13:45.276Z,17.00
2023-05-03T16:16:12.440Z,23.20
2023-05-03T16:18:39.525Z,42.30
2023-05-03T16:21:06.611Z,30.20
2023-05-03T16:23:33.638Z,27.00
2023-05-03T16:26:01.209Z,21.00
2023-05-03T16:28:28.274Z,24.50
2023-05-03T16:30:55.276Z,22.30
2023-05-03T16:33:22.515Z,25.50
2023-05-03T16:35:50.118Z,21.50
2023-05-03T16:38:17.478Z,20.90
2023-05-03T16:40:46.187Z,23.90
2023-05-03T16:43:15.775Z,22.70
2023-05-03T16:45:43.060Z,23.10
2023-05-03T16:48:11.075Z,21.40
2023-05-03T16:50:40.615Z,26.00
2023-05-03T16:53:11.886Z,21.30
2023-05-03T16:55:38.898Z,18.30
2023-05-03T16:58:07.272Z,23.20
2023-05-03T17:00:34.415Z,21.50
2023-05-03T17:03:01.420Z,20.60
2023-05-03T17:05:33.247Z,29.40
2023-05-03T17:08:01.525Z,24.30
2023-05-03T17:10:29.095Z,22.20
2023-05-03T17:12:56.692Z,30.60
2023-05-03T17:15:23.698Z,26.60
2023-05-03T17:17:52.109Z,23.90
2023-05-03T17:20:19.771Z,20.90
2023-05-03T17:22:47.347Z,25.10
2023-05-03T17:25:14.506Z,24.90
2023-05-03T17:27:43.804Z,26.90
2023-05-03T17:30:11.686Z,32.60
2023-05-03T17:32:42.069Z,21.40
2023-05-03T17:35:11.488Z,28.00
2023-05-03T17:37:38.626Z,18.50
2023-05-03T17:40:09.110Z,23.50
2023-05-03T17:42:36.141Z,26.80
2023-05-03T17:45:04.360Z,28.90
2023-05-03T17:47:32.474Z,25.40
2023-05-03T17:49:59.532Z,28.70
2023-05-03T17:52:26.528Z,27.00
2023-05-03T17:54:53.955Z,26.80
2023-05-03T17:57:21.175Z,27.50
2023-05-03T17:59:48.697Z,21.70
2023-05-03T18:02:15.971Z,28.60
2023-05-03T18:04:42.982Z,21.90
2023-05-03T18:07:10.214Z,23.50
2023-05-03T18:09:38.300Z,21.60
2023-05-03T18:12:05.802Z,29.80
2023-05-03T18:14:36.263Z,21.40
2023-05-03T18:17:03.283Z,34.60
2023-05-03T18:19:30.471Z,28.60
2023-05-03T18:21:57.812Z,23.40
2023-05-03T18:24:24.985Z,19.60
2023-05-03T18:26:54.400Z,19.30
2023-05-03T18:29:25.558Z,23.30
2023-05-03T18:31:55.665Z,21.10
2023-05-03T18:34:22.953Z,15.60
2023-05-03T18:36:50.090Z,17.50
2023-05-03T18:39:17.433Z,11.40
2023-05-03T18:41:44.463Z,14.60
2023-05-03T18:44:11.492Z,13.90
2023-05-03T18:46:38.573Z,13.10
2023-05-03T18:49:06.393Z,14.30
2023-05-03T18:51:33.619Z,18.50
2023-05-03T18:54:00.652Z,14.40
2023-05-03T18:56:30.418Z,13.50
2023-05-03T18:58:57.397Z,13.70
2023-05-03T19:01:26.675Z,14.20
2023-05-03T19:03:54.297Z,13.40
2023-05-03T19:06:21.501Z,11.90
2023-05-03T19:08:49.771Z,14.50
2023-05-03T19:11:17.275Z,17.30
2023-05-03T19:13:47.580Z,18.40
2023-05-03T19:16:17.408Z,13.50
2023-05-03T19:18:45.613Z,16.50
2023-05-03T19:21:12.731Z,14.50
2023-05-03T19:23:43.844Z,13.80
2023-05-03T19:26:10.865Z,10.80
2023-05-03T19:28:37.916Z,12.00
2023-05-03T19:31:05.979Z,16.60
2023-05-03T19:33:33.092Z,10.90
2023-05-03T19:36:06.732Z,11.10
2023-05-03T19:38:36.587Z,12.00
2023-05-03T19:41:12.064Z,14.40
2023-05-03T19:43:39.794Z,13.00
2023-05-03T19:46:07.397Z,17.10
2023-05-03T19:48:34.623Z,9.40
2023-05-03T19:51:02.639Z,14.10
2023-05-03T19:53:30.035Z,13.30
2023-05-03T19:56:03.118Z,13.40
2023-05-03T19:58:31.964Z,12.20
2023-05-03T20:00:59.408Z,11.70
2023-05-03T20:03:27.599Z,12.30
2023-05-03T20:05:54.891Z,13.80
2023-05-03T20:08:22.768Z,13.30
2023-05-03T20:10:50.361Z,13.90
2023-05-03T20:13:17.536Z,12.90
2023-05-03T20:15:44.552Z,14.50
2023-05-03T20:18:11.535Z,11.60
2023-05-03T20:20:38.569Z,11.70
2023-05-03T20:23:05.592Z,11.00
2023-05-03T20:25:32.560Z,13.80
2023-05-03T20:27:59.488Z,10.00
2023-05-03T20:30:28.844Z,12.20
2023-05-03T20:32:55.924Z,9.60
2023-05-03T20:35:23.066Z,12.00
2023-05-03T20:37:50.079Z,13.40
2023-05-03T20:40:17.099Z,9.40
2023-05-03T20:42:44.043Z,11.80
2023-05-03T20:45:11.229Z,11.00
2023-05-03T20:47:38.151Z,12.70
2023-05-03T20:50:06.221Z,9.50
2023-05-03T20:52:33.412Z,11.10
2023-05-03T20:55:00.444Z,10.00
2023-05-03T20:57:27.985Z,10.10
2023-05-03T20:59:54.972Z,9.00
2023-05-03T21:02:22.113Z,8.10
2023-05-03T21:04:49.126Z,10.30
2023-05-03T21:07:16.150Z,9.40
2023-05-03T21:09:43.105Z,12.70
2023-05-03T21:12:10.206Z,11.70
2023-05-03T21:14:37.144Z,9.10
2023-05-03T21:17:04.505Z,9.70
2023-05-03T21:19:31.563Z,12.10
2023-05-03T21:21:58.552Z,11.80
2023-05-03T21:24:25.947Z,11.30
2023-05-03T21:26:52.901Z,10.90
2023-05-03T21:29:19.903Z,9.70
2023-05-03T21:32:11.947Z,9.10
2023-05-03T21:34:39.290Z,9.20
2023-05-03T21:37:06.269Z,10.50
2023-05-03T21:39:34.120Z,11.70
2023-05-03T21:42:01.102Z,11.30
2023-05-03T21:44:28.088Z,10.50
2023-05-03T21:46:55.226Z,10.70
2023-05-03T21:49:22.568Z,11.00
2023-05-03T21:51:50.243Z,9.90
2023-05-03T21:54:19.168Z,12.70
2023-05-03T21:56:46.184Z,11.20
2023-05-03T21:59:13.285Z,10.20
2023-05-03T22:01:40.470Z,10.00
2023-05-03T22:04:07.813Z,10.40
2023-05-03T22:06:34.912Z,10.40
2023-05-03T22:09:02.015Z,13.10
2023-05-03T22:11:29.240Z,10.10
2023-05-03T22:14:06.619Z,10.60
2023-05-03T22:16:35.317Z,9.20
2023-05-03T22:19:02.363Z,11.60
2023-05-03T22:21:29.380Z,10.60
2023-05-03T22:23:56.320Z,8.80
2023-05-03T22:26:24.416Z,10.00
2023-05-03T22:28:52.136Z,10.40
2023-05-03T22:31:19.110Z,11.90
2023-05-03T22:33:47.368Z,8.50
2023-05-03T22:36:14.751Z,8.60
2023-05-03T22:38:43.097Z,10.90
2023-05-03T22:41:10.514Z,7.00
2023-05-03T22:43:37.807Z,6.60
2023-05-03T22:46:04.939Z,9.60
2023-05-03T22:48:34.698Z,7.50
2023-05-03T22:51:01.646Z,7.50
2023-05-03T22:53:28.655Z,8.40
2023-05-03T22:55:58.027Z,7.70
2023-05-03T22:58:25.818Z,10.80
2023-05-03T23:00:53.226Z,9.80
2023-05-03T23:03:20.824Z,10.80
2023-05-03T23:05:48.296Z,13.00
2023-05-03T23:08:15.537Z,12.30
2023-05-03T23:10:42.529Z,12.50
2023-05-03T23:13:09.724Z,10.80
2023-05-03T23:15:37.092Z,7.30
2023-05-03T23:18:04.276Z,11.60
2023-05-03T23:20:31.275Z,10.40
2023-05-03T23:22:58.202Z,11.00
2023-05-03T23:25:25.523Z,9.50
2023-05-03T23:27:52.626Z,9.90
2023-05-03T23:30:20.084Z,10.80
2023-05-03T23:32:47.680Z,11.50
2023-05-03T23:35:16.049Z,14.60
2023-05-03T23:37:43.018Z,12.00
2023-05-03T23:40:10.238Z,13.00
2023-05-03T23:42:39.749Z,12.50
2023-05-03T23:45:08.715Z,10.90
2023-05-03T23:47:36.117Z,11.70
2023-05-03T23:50:03.253Z,10.60
2023-05-03T23:52:30.461Z,11.50
2023-05-03T23:54:57.473Z,14.00
2023-05-03T23:57:24.475Z,9.50
2023-05-03T23:59:51.788Z,11.10
